Time;durP1;ratioP1;P1;durP2;ratioP2;P2;SDS_P1;SDS_P2;PMS_P1;PMS_P2;Temp;Humidity;BMP_temperature;BMP_pressure;BME280_temperature;BME280_humidity;BME280_pressure;Samples;Min_cycle;Max_cycle;Signal;HPM_P1;HPM_P2
2022/02/20 00:01:08;;;;;;;5.00;0.55;;;5.50;99.90;;;;;;5122244;27;20023;-75
2022/02/20 00:03:33;;;;;;;6.22;0.95;;;5.40;99.90;;;;;;5113956;28;20130;-74
2022/02/20 00:06:00;;;;;;;8.80;1.00;;;5.40;99.90;;;;;;5112982;28;20069;-75
2022/02/20 00:08:27;;;;;;;6.63;0.60;;;5.40;99.90;;;;;;5114910;27;20062;-74
2022/02/20 00:10:52;;;;;;;2.67;0.75;;;5.40;99.90;;;;;;5113064;28;20024;-74
2022/02/20 00:13:19;;;;;;;8.13;0.60;;;5.40;99.90;;;;;;5113672;28;20031;-75
2022/02/20 00:15:44;;;;;;;2.97;0.65;;;5.30;99.90;;;;;;5113469;28;20043;-75
2022/02/20 00:18:10;;;;;;;4.10;0.95;;;5.40;99.90;;;;;;5115635;28;20538;-75
2022/02/20 00:20:35;;;;;;;2.78;0.73;;;5.30;99.90;;;;;;5117713;28;20040;-76
2022/02/20 00:23:03;;;;;;;4.90;0.80;;;5.40;99.90;;;;;;5130758;27;20035;-76
2022/02/20 00:25:31;;;;;;;10.20;0.82;;;5.30;99.90;;;;;;5134961;27;20030;-76
2022/02/20 00:27:58;;;;;;;7.53;0.63;;;5.40;99.90;;;;;;5129255;27;20122;-75
2022/02/20 00:30:24;;;;;;;7.47;1.02;;;5.50;99.90;;;;;;5138629;27;20019;-76
2022/02/20 00:32:50;;;;;;;3.97;0.65;;;5.40;99.90;;;;;;5127876;27;20077;-76
2022/02/20 00:35:16;;;;;;;3.30;0.70;;;5.40;99.90;;;;;;5118684;27;20066;-76
2022/02/20 00:37:41;;;;;;;9.88;1.17;;;5.30;99.90;;;;;;5132387;27;20031;-76
2022/02/20 00:40:07;;;;;;;8.32;0.65;;;5.30;99.90;;;;;;5137805;27;20509;-76
2022/02/20 00:42:33;;;;;;;6.07;0.82;;;5.30;99.90;;;;;;5131587;27;20042;-76
2022/02/20 00:44:58;;;;;;;9.15;1.58;;;5.30;99.90;;;;;;5117105;28;20395;-75
2022/02/20 00:47:24;;;;;;;4.07;0.55;;;5.30;99.90;;;;;;5133990;27;20062;-75
2022/02/20 00:49:49;;;;;;;3.13;0.40;;;5.30;99.90;;;;;;5138225;27;20023;-76
2022/02/20 00:52:15;;;;;;;7.53;1.10;;;5.30;99.90;;;;;;5136176;27;20050;-75
2022/02/20 00:54:40;;;;;;;3.88;0.68;;;5.30;99.90;;;;;;5117092;28;20024;-75
2022/02/20 00:57:06;;;;;;;11.38;1.55;;;5.40;99.90;;;;;;5117694;27;20024;-75
2022/02/20 00:59:31;;;;;;;6.68;0.52;;;5.30;99.90;;;;;;5137742;27;20026;-75
2022/02/20 01:01:57;;;;;;;4.65;0.88;;;5.30;99.90;;;;;;5120818;27;20043;-75
2022/02/20 01:04:25;;;;;;;10.00;0.73;;;5.40;99.90;;;;;;5120979;27;20100;-75
2022/02/20 01:06:51;;;;;;;6.55;0.57;;;5.40;99.90;;;;;;5116884;28;20127;-75
2022/02/20 01:09:16;;;;;;;2.58;1.20;;;5.40;99.90;;;;;;5134013;27;20051;-75
2022/02/20 01:11:43;;;;;;;4.28;1.02;;;5.40;99.90;;;;;;5135474;27;20051;-76
2022/02/20 01:14:11;;;;;;;2.53;0.52;;;5.40;99.90;;;;;;5133630;27;20106;-75
2022/02/20 01:16:37;;;;;;;3.30;0.60;;;5.90;99.90;;;;;;5117406;27;20054;-75
2022/02/20 01:19:03;;;;;;;1.17;0.30;;;5.50;99.90;;;;;;5131672;27;20171;-75
2022/02/20 01:21:28;;;;;;;7.57;1.65;;;5.50;99.90;;;;;;5137841;27;20047;-75
2022/02/20 01:23:54;;;;;;;0.98;0.30;;;5.40;99.90;;;;;;5134518;27;20035;-75
2022/02/20 01:26:19;;;;;;;5.97;0.65;;;5.50;99.90;;;;;;5120126;27;20023;-75
2022/02/20 01:28:45;;;;;;;2.30;0.40;;;5.40;99.90;;;;;;5117288;27;20394;-75
2022/02/20 01:31:11;;;;;;;0.80;0.68;;;5.40;99.90;;;;;;5114814;28;20016;-75
2022/02/20 01:33:36;;;;;;;1.17;0.40;;;5.50;99.90;;;;;;5125416;27;20046;-75
2022/02/20 01:36:02;;;;;;;1.73;0.77;;;5.40;99.90;;;;;;5121978;27;20392;-76
2022/02/20 01:38:28;;;;;;;6.40;0.70;;;5.40;99.90;;;;;;5117831;27;20054;-76
2022/02/20 01:40:56;;;;;;;2.85;0.38;;;5.40;99.90;;;;;;5117300;27;20023;-76
2022/02/20 01:43:22;;;;;;;2.53;0.60;;;5.40;99.90;;;;;;5121546;27;20110;-76
2022/02/20 01:45:48;;;;;;;4.78;0.70;;;5.40;99.90;;;;;;5136944;27;20027;-76
2022/02/20 01:48:13;;;;;;;4.43;0.68;;;5.50;99.90;;;;;;5132483;27;20114;-76
2022/02/20 01:50:39;;;;;;;8.50;0.85;;;5.40;99.90;;;;;;5115222;28;20426;-75
2022/02/20 01:53:05;;;;;;;3.10;0.50;;;5.50;99.90;;;;;;5118991;27;20117;-75
2022/02/20 01:55:30;;;;;;;7.28;0.52;;;5.50;99.90;;;;;;5115948;27;20034;-76
2022/02/20 01:57:56;;;;;;;11.27;1.75;;;5.50;99.90;;;;;;5135783;27;20027;-75
2022/02/20 02:00:23;;;;;;;1.50;0.63;;;5.50;99.90;;;;;;5118279;27;20035;-75
2022/02/20 02:02:48;;;;;;;3.65;0.47;;;5.50;99.90;;;;;;5133155;27;20053;-75
2022/02/20 02:05:14;;;;;;;3.00;0.93;;;5.50;99.90;;;;;;5134065;27;20023;-75
2022/02/20 02:07:40;;;;;;;7.03;1.05;;;5.40;99.90;;;;;;5134552;27;20501;-74
2022/02/20 02:10:07;;;;;;;5.20;0.57;;;5.30;99.90;;;;;;5116538;27;20023;-75
2022/02/20 02:12:34;;;;;;;5.53;0.77;;;5.30;99.90;;;;;;5114813;28;20030;-75
2022/02/20 02:15:03;;;;;;;2.90;0.60;;;5.30;99.90;;;;;;5117708;27;20023;-75
2022/02/20 02:17:29;;;;;;;2.60;0.60;;;5.30;99.90;;;;;;5126106;27;20027;-75
2022/02/20 02:19:55;;;;;;;5.75;1.30;;;5.20;99.90;;;;;;5122972;27;20027;-75
2022/02/20 02:22:25;;;;;;;8.15;0.65;;;5.20;99.90;;;;;;5115076;27;20036;-75
2022/02/20 02:24:52;;;;;;;2.55;1.02;;;5.20;99.90;;;;;;5127178;27;20059;-75
2022/02/20 02:27:18;;;;;;;3.47;0.55;;;5.20;99.90;;;;;;5135976;27;20023;-76
2022/02/20 02:29:46;;;;;;;6.35;0.52;;;5.20;99.90;;;;;;5134352;27;20023;-76
2022/02/20 02:32:13;;;;;;;6.38;0.68;;;5.20;99.90;;;;;;5135214;27;20069;-75
2022/02/20 02:34:40;;;;;;;8.52;0.82;;;5.20;99.90;;;;;;5126470;27;20020;-75
2022/02/20 02:37:06;;;;;;;7.05;0.93;;;5.20;99.90;;;;;;5115410;28;20032;-75
2022/02/20 02:39:32;;;;;;;5.72;0.65;;;5.30;99.90;;;;;;5125371;27;20023;-74
2022/02/20 02:41:58;;;;;;;4.22;0.57;;;5.30;99.90;;;;;;5132097;27;20402;-75
2022/02/20 02:44:23;;;;;;;5.32;0.75;;;5.30;99.90;;;;;;5131590;27;20047;-76
2022/02/20 02:46:52;;;;;;;6.78;0.85;;;5.30;99.90;;;;;;5114468;28;20534;-75
2022/02/20 02:49:17;;;;;;;4.13;0.57;;;5.40;99.90;;;;;;5122779;27;20340;-75
2022/02/20 02:51:43;;;;;;;4.78;0.80;;;5.30;99.90;;;;;;5114610;28;20045;-75
2022/02/20 02:54:11;;;;;;;5.75;0.82;;;5.40;99.90;;;;;;5126159;27;20023;-75
2022/02/20 02:56:37;;;;;;;7.88;0.75;;;5.40;99.90;;;;;;5116684;27;20028;-76
2022/02/20 02:59:05;;;;;;;4.75;0.77;;;5.50;99.90;;;;;;5115214;27;20027;-76
2022/02/20 03:01:31;;;;;;;5.10;0.82;;;5.40;99.90;;;;;;5122055;27;20038;-76
2022/02/20 03:03:56;;;;;;;4.63;1.00;;;5.50;99.90;;;;;;5114266;28;20062;-75
2022/02/20 03:06:23;;;;;;;3.60;1.00;;;5.50;99.90;;;;;;5115338;27;20058;-75
2022/02/20 03:08:49;;;;;;;2.58;0.93;;;5.50;99.90;;;;;;5113532;28;20027;-75
2022/02/20 03:11:15;;;;;;;6.03;1.30;;;5.50;99.90;;;;;;5132946;27;20023;-75
2022/02/20 03:13:40;;;;;;;7.13;0.98;;;5.40;99.90;;;;;;5135074;27;20092;-75
2022/02/20 03:16:06;;;;;;;5.40;0.85;;;5.50;99.90;;;;;;5117917;27;20459;-74
2022/02/20 03:18:32;;;;;;;7.18;0.98;;;5.50;99.90;;;;;;5114069;28;20023;-75
2022/02/20 03:21:03;;;;;;;2.35;1.35;;;5.40;99.90;;;;;;5127568;27;20034;-75
2022/02/20 03:23:29;;;;;;;5.93;1.00;;;5.40;99.90;;;;;;5134501;27;20140;-75
2022/02/20 03:25:55;;;;;;;4.75;1.40;;;5.30;99.90;;;;;;5122178;27;20059;-75
2022/02/20 03:28:20;;;;;;;6.40;1.10;;;5.30;99.90;;;;;;5135288;27;20034;-74
2022/02/20 03:30:46;;;;;;;6.57;1.25;;;5.30;99.90;;;;;;5122115;27;20027;-76
2022/02/20 03:33:12;;;;;;;6.22;1.70;;;5.30;99.90;;;;;;5113926;28;20483;-75
2022/02/20 03:35:38;;;;;;;3.83;1.60;;;5.30;99.90;;;;;;5121505;27;20023;-74
2022/02/20 03:38:04;;;;;;;4.43;1.20;;;5.30;99.90;;;;;;5115451;27;20077;-74
2022/02/20 03:40:33;;;;;;;2.60;1.52;;;5.30;99.90;;;;;;5115500;27;20024;-74
2022/02/20 03:42:59;;;;;;;6.32;2.00;;;5.20;99.90;;;;;;5125470;27;20050;-74
2022/02/20 03:45:28;;;;;;;8.50;2.22;;;5.20;99.90;;;;;;5127245;27;20471;-75
2022/02/20 03:47:54;;;;;;;5.20;2.00;;;5.20;99.90;;;;;;5113876;28;20027;-75
2022/02/20 03:50:20;;;;;;;5.55;2.75;;;5.30;99.90;;;;;;5113451;27;20480;-75
2022/02/20 03:52:46;;;;;;;5.85;3.60;;;5.30;99.90;;;;;;5113566;28;20023;-75
2022/02/20 03:55:12;;;;;;;10.13;4.32;;;5.40;99.90;;;;;;5118664;27;20486;-75
2022/02/20 03:57:38;;;;;;;11.20;3.90;;;5.30;99.90;;;;;;5127101;27;20479;-75
2022/02/20 04:00:10;;;;;;;10.50;3.70;;;5.30;99.90;;;;;;5131948;27;20031;-75
2022/02/20 04:02:37;;;;;;;6.43;3.53;;;5.30;99.90;;;;;;5133923;27;20035;-75
2022/02/20 04:05:04;;;;;;;9.75;3.83;;;5.40;99.90;;;;;;5130621;27;20032;-75
2022/02/20 04:07:30;;;;;;;9.45;4.00;;;5.30;99.90;;;;;;5132304;27;20137;-75
2022/02/20 04:09:55;;;;;;;13.00;5.25;;;5.30;99.90;;;;;;5132353;27;20115;-74
2022/02/20 04:12:21;;;;;;;5.68;4.18;;;5.30;99.90;;;;;;5113293;28;20480;-75
2022/02/20 04:14:46;;;;;;;7.53;3.80;;;5.30;99.90;;;;;;5113501;28;20023;-75
2022/02/20 04:17:12;;;;;;;8.57;4.50;;;5.30;99.90;;;;;;5132939;28;20031;-75
2022/02/20 04:19:37;;;;;;;8.32;4.68;;;5.30;99.90;;;;;;5133948;28;20355;-75
2022/02/20 04:22:03;;;;;;;13.48;4.75;;;5.30;99.90;;;;;;5116943;28;20131;-75
2022/02/20 04:24:29;;;;;;;10.35;5.00;;;5.30;99.90;;;;;;5113532;28;20051;-75
2022/02/20 04:26:54;;;;;;;8.60;4.53;;;5.40;99.90;;;;;;5128261;28;20046;-75
2022/02/20 04:29:20;;;;;;;10.27;5.47;;;5.40;99.90;;;;;;5135144;28;20051;-75
2022/02/20 04:31:46;;;;;;;9.88;5.63;;;5.40;99.90;;;;;;5117706;28;20063;-75
2022/02/20 04:34:11;;;;;;;6.78;6.05;;;5.30;99.90;;;;;;5113799;28;20012;-75
2022/02/20 04:36:38;;;;;;;12.20;5.95;;;5.40;99.90;;;;;;5124196;28;20134;-75
2022/02/20 04:39:05;;;;;;;12.38;6.43;;;5.40;99.90;;;;;;5134302;27;20385;-76
2022/02/20 04:41:31;;;;;;;10.57;7.07;;;5.30;99.90;;;;;;5130892;28;20031;-76
2022/02/20 04:43:57;;;;;;;12.65;6.32;;;5.30;99.90;;;;;;5123990;27;20024;-75
2022/02/20 04:46:23;;;;;;;7.40;6.45;;;5.30;99.90;;;;;;5115502;27;20081;-75
2022/02/20 04:48:48;;;;;;;13.18;6.75;;;5.30;99.90;;;;;;5133105;27;20475;-75
2022/02/20 04:51:14;;;;;;;9.20;5.93;;;5.30;99.90;;;;;;5133117;27;20051;-75
2022/02/20 04:53:39;;;;;;;9.77;6.53;;;5.30;99.90;;;;;;5132240;27;20019;-75
2022/02/20 04:56:05;;;;;;;13.20;6.82;;;5.30;99.90;;;;;;5134247;27;20019;-75
2022/02/20 04:58:31;;;;;;;16.83;6.45;;;5.30;99.90;;;;;;5132232;28;20114;-75
2022/02/20 05:00:57;;;;;;;14.77;7.43;;;5.30;99.90;;;;;;5125733;28;20108;-75
2022/02/20 05:03:22;;;;;;;12.30;8.32;;;5.30;99.90;;;;;;5114437;28;20122;-74
2022/02/20 05:05:48;;;;;;;12.27;7.68;;;5.30;99.90;;;;;;5115542;28;20023;-75
2022/02/20 05:08:14;;;;;;;18.15;7.38;;;5.20;99.90;;;;;;5117193;27;20051;-74
2022/02/20 05:10:40;;;;;;;14.68;7.82;;;5.20;99.90;;;;;;5116376;28;20030;-74
2022/02/20 05:13:05;;;;;;;13.68;8.18;;;5.20;99.90;;;;;;5128051;27;20011;-75
2022/02/20 05:15:31;;;;;;;13.95;7.60;;;5.30;99.90;;;;;;5136847;27;20027;-75
2022/02/20 05:17:57;;;;;;;15.63;8.90;;;5.30;99.90;;;;;;5133055;27;20019;-74
2022/02/20 05:20:22;;;;;;;20.50;8.07;;;5.30;99.90;;;;;;5129717;27;20032;-74
2022/02/20 05:22:48;;;;;;;17.20;8.13;;;5.40;99.90;;;;;;5123695;27;20122;-74
2022/02/20 05:25:14;;;;;;;14.13;7.55;;;5.50;99.90;;;;;;5137597;27;20054;-74
2022/02/20 05:27:45;;;;;;;19.70;8.02;;;5.50;99.90;;;;;;5135886;27;20046;-74
2022/02/20 05:30:13;;;;;;;16.55;8.27;;;5.60;99.90;;;;;;5136263;27;20114;-74
2022/02/20 05:32:39;;;;;;;21.90;8.07;;;5.60;99.90;;;;;;5130683;27;20472;-74
2022/02/20 05:35:06;;;;;;;21.00;8.75;;;5.70;99.90;;;;;;5115741;27;20063;-73
2022/02/20 05:37:43;;;;;;;26.27;9.32;;;5.70;99.90;;;;;;5132277;27;20111;-74
2022/02/20 05:40:10;;;;;;;34.40;10.85;;;5.70;99.90;;;;;;5115912;28;20037;-73
2022/02/20 05:42:36;;;;;;;16.00;7.03;;;5.80;99.90;;;;;;5116220;27;20039;-74
2022/02/20 05:45:02;;;;;;;21.77;7.75;;;5.90;99.90;;;;;;5136750;27;20030;-75
2022/02/20 05:47:27;;;;;;;19.50;7.43;;;5.90;99.90;;;;;;5131888;27;20128;-75
2022/02/20 05:49:53;;;;;;;16.10;6.65;;;5.80;99.90;;;;;;5115164;28;20152;-76
2022/02/20 05:52:18;;;;;;;16.73;7.28;;;5.80;99.90;;;;;;5115783;28;20475;-76
2022/02/20 05:54:44;;;;;;;30.55;7.93;;;5.90;99.90;;;;;;5134822;27;20035;-76
2022/02/20 05:57:09;;;;;;;29.50;8.85;;;5.90;99.90;;;;;;5121230;27;20126;-75
2022/02/20 05:59:35;;;;;;;24.45;7.00;;;6.00;99.90;;;;;;5115756;28;20034;-76
2022/02/20 06:02:00;;;;;;;20.92;7.13;;;6.10;99.90;;;;;;5116425;27;20046;-76
2022/02/20 06:04:26;;;;;;;24.52;6.82;;;6.10;99.90;;;;;;5115460;28;20104;-76
2022/02/20 06:06:54;;;;;;;22.13;7.35;;;6.30;99.90;;;;;;5129337;27;20042;-76
2022/02/20 06:09:20;;;;;;;23.88;7.10;;;6.30;99.90;;;;;;5136265;27;20378;-76
2022/02/20 06:11:45;;;;;;;18.95;6.80;;;6.40;99.90;;;;;;5135934;27;20031;-76
2022/02/20 06:14:11;;;;;;;21.73;7.35;;;6.30;99.90;;;;;;5136526;27;20105;-76
2022/02/20 06:16:36;;;;;;;20.10;7.30;;;6.40;99.90;;;;;;5125160;27;20076;-76
2022/02/20 06:19:02;;;;;;;17.25;6.75;;;6.50;99.90;;;;;;5115281;28;20020;-76
2022/02/20 06:21:28;;;;;;;18.73;7.35;;;6.50;99.90;;;;;;5117869;27;20095;-76
2022/02/20 06:23:53;;;;;;;21.63;6.68;;;6.60;99.90;;;;;;5116294;28;20158;-76
2022/02/20 06:26:19;;;;;;;26.48;6.57;;;6.60;99.90;;;;;;5118512;27;20028;-76
2022/02/20 06:28:44;;;;;;;24.73;8.10;;;6.60;99.90;;;;;;5115263;28;20027;-76
2022/02/20 06:31:10;;;;;;;22.05;6.60;;;6.70;99.90;;;;;;5121322;27;20049;-76
2022/02/20 06:33:36;;;;;;;25.02;6.30;;;6.80;99.90;;;;;;5126316;27;20034;-76
2022/02/20 06:36:01;;;;;;;23.02;6.10;;;6.90;99.90;;;;;;5135337;27;20386;-76
2022/02/20 06:38:27;;;;;;;23.70;5.38;;;7.10;99.90;;;;;;5134978;27;20109;-77
2022/02/20 06:40:52;;;;;;;19.35;5.50;;;7.30;99.90;;;;;;5134862;27;20415;-76
2022/02/20 06:43:18;;;;;;;16.08;3.45;;;7.40;99.90;;;;;;5123543;27;20450;-77
2022/02/20 06:45:46;;;;;;;14.55;4.20;;;7.60;99.90;;;;;;5135168;27;20131;-77
2022/02/20 06:48:12;;;;;;;15.25;4.43;;;7.50;99.90;;;;;;5116525;27;20024;-77
2022/02/20 06:50:37;;;;;;;19.67;5.03;;;7.70;99.90;;;;;;5114953;28;20016;-77
2022/02/20 06:53:05;;;;;;;13.63;3.90;;;7.70;99.90;;;;;;5126642;27;20031;-77
2022/02/20 06:55:32;;;;;;;10.23;4.45;;;7.80;99.90;;;;;;5115171;28;20450;-76
2022/02/20 06:57:58;;;;;;;19.55;4.28;;;7.80;99.90;;;;;;5123484;27;20027;-76
2022/02/20 07:00:24;;;;;;;16.30;3.40;;;7.90;99.90;;;;;;5134626;27;20027;-75
2022/02/20 07:02:50;;;;;;;14.38;4.22;;;8.00;99.90;;;;;;5135102;27;20114;-75
2022/02/20 07:05:15;;;;;;;18.88;4.13;;;8.10;99.90;;;;;;5135305;27;20114;-75
2022/02/20 07:07:41;;;;;;;14.05;3.90;;;8.10;99.90;;;;;;5134016;27;20082;-75
2022/02/20 07:10:08;;;;;;;16.08;6.22;;;8.20;99.90;;;;;;5134987;27;20023;-76
2022/02/20 07:12:35;;;;;;;15.73;4.80;;;8.20;99.90;;;;;;5135751;27;20034;-75
2022/02/20 07:15:01;;;;;;;15.52;4.18;;;8.30;99.90;;;;;;5134622;27;20093;-78
2022/02/20 07:17:27;;;;;;;11.43;5.03;;;8.30;99.90;;;;;;5136135;27;20027;-75
2022/02/20 07:19:52;;;;;;;16.67;6.60;;;8.30;99.90;;;;;;5137355;27;20374;-76
2022/02/20 07:22:18;;;;;;;16.70;5.75;;;8.30;99.90;;;;;;5136957;27;20117;-75
2022/02/20 07:24:43;;;;;;;23.50;5.20;;;8.40;99.90;;;;;;5147071;27;20041;-76
2022/02/20 07:27:09;;;;;;;26.73;5.03;;;8.50;99.90;;;;;;5155249;27;20049;-76
2022/02/20 07:29:35;;;;;;;18.80;4.35;;;8.50;99.90;;;;;;5154303;27;20501;-76
2022/02/20 07:32:00;;;;;;;23.35;5.03;;;8.50;99.90;;;;;;5155028;27;20027;-75
2022/02/20 07:34:26;;;;;;;27.95;4.13;;;8.60;99.90;;;;;;5157391;27;20022;-74
2022/02/20 07:36:52;;;;;;;26.73;4.10;;;8.70;99.90;;;;;;5155154;27;20027;-76
2022/02/20 07:39:17;;;;;;;34.17;5.35;;;8.80;99.90;;;;;;5155386;27;20043;-75
2022/02/20 07:41:43;;;;;;;29.30;5.03;;;8.90;99.90;;;;;;5154342;27;20030;-76
2022/02/20 07:44:09;;;;;;;32.97;5.32;;;8.90;99.90;;;;;;5155328;27;20367;-75
2022/02/20 07:46:35;;;;;;;38.40;6.72;;;9.00;99.90;;;;;;5155297;27;20043;-75
2022/02/20 07:49:01;;;;;;;36.65;6.82;;;9.00;99.90;;;;;;5154190;27;20023;-75
2022/02/20 07:51:27;;;;;;;45.33;6.45;;;9.10;99.90;;;;;;5153540;27;20490;-75
2022/02/20 07:53:54;;;;;;;51.38;5.85;;;9.10;99.90;;;;;;5114896;27;20077;-76
2022/02/20 07:56:20;;;;;;;33.88;6.57;;;9.20;99.90;;;;;;5115220;27;20019;-76
2022/02/20 07:58:46;;;;;;;54.65;5.97;;;9.20;99.90;;;;;;5113653;28;20031;-76
2022/02/20 08:01:12;;;;;;;45.67;7.97;;;9.20;99.90;;;;;;5118157;27;20023;-76
2022/02/20 08:03:38;;;;;;;41.58;7.07;;;9.30;99.90;;;;;;5113797;27;20027;-74
2022/02/20 08:06:05;;;;;;;49.00;6.55;;;9.30;99.90;;;;;;5114705;27;20057;-75
2022/02/20 08:08:32;;;;;;;45.13;6.72;;;9.30;99.90;;;;;;5128994;27;20071;-75
2022/02/20 08:11:00;;;;;;;52.03;8.02;;;9.40;99.90;;;;;;5121133;27;20035;-75
2022/02/20 08:13:26;;;;;;;60.38;6.70;;;9.30;99.90;;;;;;5120215;27;20434;-76
2022/02/20 08:15:52;;;;;;;62.80;7.05;;;9.40;99.90;;;;;;5113053;28;20054;-74
2022/02/20 08:18:18;;;;;;;50.33;6.47;;;9.40;99.90;;;;;;5133858;28;20105;-76
2022/02/20 08:20:44;;;;;;;41.85;5.82;;;9.40;99.90;;;;;;5151080;27;20175;-76
2022/02/20 08:23:11;;;;;;;52.75;7.00;;;9.50;99.90;;;;;;5154663;27;20866;-74
2022/02/20 08:25:39;;;;;;;48.65;6.63;;;9.60;99.90;;;;;;5154047;27;20369;-76
2022/02/20 08:28:05;;;;;;;41.75;6.50;;;9.60;99.90;;;;;;5154660;27;20025;-75
2022/02/20 08:30:30;;;;;;;52.97;7.13;;;9.60;99.90;;;;;;5155429;27;20027;-75
2022/02/20 08:32:56;;;;;;;47.60;7.45;;;9.70;99.90;;;;;;5154260;27;20034;-76
2022/02/20 08:35:21;;;;;;;55.53;7.45;;;9.70;99.90;;;;;;5154247;27;20439;-75
2022/02/20 08:37:47;;;;;;;48.75;7.90;;;9.80;99.90;;;;;;5154508;27;20033;-75
2022/02/20 08:40:15;;;;;;;53.80;8.30;;;9.80;99.90;;;;;;5153096;27;20421;-75
2022/02/20 08:42:41;;;;;;;42.55;5.85;;;9.70;99.90;;;;;;5137841;27;20031;-76
2022/02/20 08:45:07;;;;;;;61.45;7.38;;;9.80;99.90;;;;;;5137781;27;20020;-76
2022/02/20 08:47:33;;;;;;;41.22;6.95;;;9.80;99.90;;;;;;5139567;27;20042;-76
2022/02/20 08:50:00;;;;;;;48.97;6.47;;;9.90;99.90;;;;;;5138628;27;20026;-76
2022/02/20 08:52:26;;;;;;;57.45;9.73;;;9.90;99.90;;;;;;5137906;27;20031;-76
2022/02/20 08:54:52;;;;;;;59.67;6.32;;;9.90;99.90;;;;;;5140886;27;20046;-75
2022/02/20 08:57:18;;;;;;;61.15;7.00;;;10.00;99.90;;;;;;5158397;27;20433;-76
2022/02/20 08:59:44;;;;;;;35.72;6.20;;;10.00;99.90;;;;;;5145833;27;20019;-74
2022/02/20 09:02:12;;;;;;;47.08;6.75;;;10.10;99.90;;;;;;5118317;28;20271;-75
2022/02/20 09:04:38;;;;;;;49.08;6.63;;;10.00;99.90;;;;;;5122886;27;20026;-74
2022/02/20 09:07:05;;;;;;;45.35;7.40;;;10.10;99.90;;;;;;5127813;27;20102;-75
2022/02/20 09:09:30;;;;;;;36.90;6.03;;;10.10;99.90;;;;;;5120741;27;20374;-75
2022/02/20 09:11:56;;;;;;;40.05;6.50;;;10.10;99.90;;;;;;5118252;27;20087;-77
2022/02/20 09:14:22;;;;;;;36.88;6.07;;;10.20;99.90;;;;;;5126965;27;20065;-75
2022/02/20 09:16:48;;;;;;;43.80;6.10;;;10.20;99.90;;;;;;5117022;28;20031;-76
2022/02/20 09:19:14;;;;;;;34.38;6.70;;;10.20;99.90;;;;;;5133310;27;20035;-75
2022/02/20 09:21:40;;;;;;;44.55;5.70;;;10.30;99.90;;;;;;5136737;27;20023;-75
2022/02/20 09:24:06;;;;;;;49.75;6.63;;;10.30;99.90;;;;;;5137640;27;20033;-76
2022/02/20 09:26:31;;;;;;;46.63;7.07;;;10.40;99.90;;;;;;5132926;27;20031;-76
2022/02/20 09:28:57;;;;;;;40.40;7.72;;;10.40;99.90;;;;;;5122797;27;20534;-76
2022/02/20 09:31:22;;;;;;;40.00;6.45;;;10.40;99.90;;;;;;5118332;28;20091;-75
2022/02/20 09:33:48;;;;;;;41.30;6.70;;;10.50;99.90;;;;;;5137570;27;20046;-77
2022/02/20 09:36:14;;;;;;;47.33;8.20;;;10.40;99.90;;;;;;5137411;27;20058;-75
2022/02/20 09:38:40;;;;;;;32.97;6.03;;;10.50;99.90;;;;;;5137800;27;20058;-77
2022/02/20 09:41:07;;;;;;;53.33;6.95;;;10.50;99.90;;;;;;5138193;27;20028;-76
2022/02/20 09:43:33;;;;;;;46.63;7.57;;;10.50;99.90;;;;;;5122967;27;20053;-77
2022/02/20 09:46:00;;;;;;;42.05;7.97;;;10.50;99.90;;;;;;5116821;28;20467;-76
2022/02/20 09:48:27;;;;;;;43.78;5.30;;;10.60;99.90;;;;;;5117957;27;20023;-76
2022/02/20 09:50:52;;;;;;;49.95;10.38;;;10.60;99.90;;;;;;5134537;27;20386;-76
2022/02/20 09:53:18;;;;;;;48.78;9.40;;;10.60;99.90;;;;;;5137578;27;20027;-78
2022/02/20 09:55:45;;;;;;;53.88;7.68;;;10.60;99.90;;;;;;5137871;27;20486;-76
2022/02/20 09:58:13;;;;;;;42.65;7.28;;;10.60;99.90;;;;;;5159967;27;20030;-76
2022/02/20 10:00:53;;;;;;;55.25;7.75;;;10.60;99.90;;;;;;5159233;27;20018;-77
2022/02/20 10:03:35;;;;;;;46.97;7.25;;;10.60;99.90;;;;;;5158038;27;20079;-76
2022/02/20 10:06:04;;;;;;;59.08;9.07;;;10.50;99.90;;;;;;5150632;27;20167;-75
2022/02/20 10:08:43;;;;;;;50.58;7.28;;;10.50;99.90;;;;;;5127329;27;20087;-74
2022/02/20 10:11:29;;;;;;;61.95;9.15;;;10.40;99.90;;;;;;5132068;27;20023;-73
2022/02/20 10:14:13;;;;;;;54.13;10.13;;;10.40;99.90;;;;;;5145726;27;20157;-76
2022/02/20 10:16:38;;;;;;;72.22;16.00;;;10.40;99.90;;;;;;5137941;27;20033;-76
2022/02/20 10:19:04;;;;;;;66.40;10.18;;;10.40;99.90;;;;;;5136163;27;20023;-76
2022/02/20 10:21:33;;;;;;;63.40;10.02;;;10.30;99.90;;;;;;5135505;27;20023;-76
2022/02/20 10:24:10;;;;;;;51.95;8.82;;;10.40;99.90;;;;;;5151068;27;20114;-76
2022/02/20 10:26:47;;;;;;;39.25;9.15;;;10.40;99.90;;;;;;5156846;27;20486;-76
2022/02/20 10:29:27;;;;;;;46.88;7.43;;;10.30;99.90;;;;;;5119890;27;20032;-75
2022/02/20 10:31:54;;;;;;;57.22;8.25;;;10.30;99.90;;;;;;5155450;27;20518;-75
2022/02/20 10:34:25;;;;;;;40.47;4.95;;;10.20;99.90;;;;;;5156475;27;20071;-75
2022/02/20 10:36:55;;;;;;;39.00;6.55;;;10.20;99.90;;;;;;5156530;27;20023;-76
2022/02/20 10:39:27;;;;;;;46.78;8.07;;;10.20;99.90;;;;;;5155963;27;20022;-75
2022/02/20 10:41:55;;;;;;;46.90;6.68;;;10.20;99.90;;;;;;5156781;27;20035;-77
2022/02/20 10:44:21;;;;;;;59.40;7.78;;;10.50;99.90;;;;;;5156875;27;20023;-76
2022/02/20 10:46:47;;;;;;;46.33;6.75;;;10.10;99.90;;;;;;5155498;27;20027;-77
2022/02/20 10:49:25;;;;;;;48.38;8.40;;;10.10;99.90;;;;;;5126098;27;20031;-75
2022/02/20 10:51:51;;;;;;;51.25;7.65;;;10.10;99.90;;;;;;5147098;27;20070;-77
2022/02/20 10:54:17;;;;;;;62.33;9.82;;;10.10;99.90;;;;;;5156702;27;20034;-76
2022/02/20 10:56:45;;;;;;;44.22;8.07;;;10.00;99.90;;;;;;5156876;27;20361;-76
2022/02/20 10:59:10;;;;;;;54.13;8.75;;;10.00;99.90;;;;;;5155503;27;20022;-77
2022/02/20 11:01:36;;;;;;;62.65;10.35;;;10.10;99.90;;;;;;5152295;27;20035;-74
2022/02/20 11:04:10;;;;;;;44.83;6.95;;;10.00;99.90;;;;;;5146221;27;20023;-76
2022/02/20 11:06:39;;;;;;;47.67;8.85;;;10.10;99.90;;;;;;5135350;27;20047;-76
2022/02/20 11:09:06;;;;;;;34.10;6.75;;;10.00;99.90;;;;;;5147615;27;20039;-76
2022/02/20 11:11:39;;;;;;;46.97;8.27;;;10.10;99.90;;;;;;5155507;27;20030;-77
2022/02/20 11:14:12;;;;;;;58.55;8.52;;;10.10;99.90;;;;;;5155076;27;20035;-76
2022/02/20 11:16:44;;;;;;;46.20;7.93;;;10.10;99.90;;;;;;5155409;27;20019;-76
2022/02/20 11:19:13;;;;;;;38.35;8.02;;;10.10;99.90;;;;;;5152000;27;20023;-76
2022/02/20 11:21:43;;;;;;;26.40;5.72;;;10.10;99.90;;;;;;5154269;27;20030;-76
2022/02/20 11:24:09;;;;;;;38.92;7.32;;;10.10;99.90;;;;;;5128776;27;20037;-75
2022/02/20 11:26:37;;;;;;;46.72;6.45;;;10.10;99.90;;;;;;5135254;27;20028;-74
2022/02/20 11:29:03;;;;;;;48.17;10.15;;;10.10;99.90;;;;;;5134651;27;20039;-76
2022/02/20 11:31:30;;;;;;;39.13;6.93;;;10.10;99.90;;;;;;5135314;27;20030;-76
2022/02/20 11:33:56;;;;;;;42.22;6.60;;;10.10;99.90;;;;;;5134633;27;20058;-76
2022/02/20 11:36:27;;;;;;;45.00;7.00;;;10.20;99.90;;;;;;5135308;27;20030;-75
2022/02/20 11:39:07;;;;;;;40.47;7.07;;;10.10;99.90;;;;;;5135532;27;20044;-76
2022/02/20 11:41:33;;;;;;;42.63;6.43;;;10.20;99.90;;;;;;5134469;27;20019;-76
2022/02/20 11:44:19;;;;;;;41.00;5.85;;;10.10;99.90;;;;;;5134525;27;20443;-75
2022/02/20 11:46:50;;;;;;;38.15;6.18;;;10.20;99.90;;;;;;5135478;27;20412;-76
2022/02/20 11:49:19;;;;;;;44.92;7.95;;;10.20;99.90;;;;;;5134321;27;20482;-75
2022/02/20 11:52:01;;;;;;;43.97;7.28;;;10.20;99.90;;;;;;5134943;27;20072;-75
2022/02/20 11:54:28;;;;;;;47.10;7.43;;;10.20;99.90;;;;;;5135255;27;20029;-76
2022/02/20 11:57:12;;;;;;;39.63;5.57;;;10.20;99.90;;;;;;5134280;27;20022;-75
2022/02/20 12:00:00;;;;;;;37.42;7.95;;;10.20;99.90;;;;;;5134839;27;20031;-76
2022/02/20 12:02:25;;;;;;;49.55;8.57;;;10.10;99.90;;;;;;5134308;27;20035;-76
2022/02/20 12:04:51;;;;;;;32.97;6.68;;;10.20;99.90;;;;;;5121163;27;20023;-76
2022/02/20 12:07:37;;;;;;;34.80;5.65;;;10.20;99.90;;;;;;5114254;28;20126;-76
2022/02/20 12:10:18;;;;;;;45.20;6.60;;;10.20;99.90;;;;;;5113685;28;20020;-74
2022/02/20 12:12:48;;;;;;;42.97;6.25;;;10.20;99.90;;;;;;5114645;27;20032;-76
2022/02/20 12:15:45;;;;;;;56.35;9.43;;;10.20;99.90;;;;;;5121936;27;20034;-76
2022/02/20 12:18:10;;;;;;;34.42;6.15;;;10.20;99.90;;;;;;5120820;28;20035;-75
2022/02/20 12:20:51;;;;;;;34.05;7.60;;;10.20;99.90;;;;;;5116815;28;20038;-76
2022/02/20 12:23:33;;;;;;;44.88;6.32;;;10.20;99.90;;;;;;5112482;28;20047;-75
2022/02/20 12:26:01;;;;;;;39.28;8.05;;;10.20;99.90;;;;;;5113460;28;20032;-74
2022/02/20 12:28:46;;;;;;;40.17;6.07;;;10.20;99.90;;;;;;5112784;28;20028;-75
2022/02/20 12:31:14;;;;;;;32.90;6.18;;;10.20;99.90;;;;;;5122309;27;20027;-77
2022/02/20 12:33:48;;;;;;;42.47;6.22;;;10.20;99.90;;;;;;5125137;27;20462;-74
2022/02/20 12:36:24;;;;;;;37.58;5.82;;;10.20;99.90;;;;;;5134214;27;20042;-75
2022/02/20 12:38:52;;;;;;;37.80;6.63;;;10.20;99.90;;;;;;5134798;27;20011;-75
2022/02/20 12:41:18;;;;;;;34.97;6.63;;;10.20;99.90;;;;;;5154559;27;20031;-75
2022/02/20 12:43:52;;;;;;;27.02;5.10;;;10.20;99.90;;;;;;5150278;27;20110;-75
2022/02/20 12:46:19;;;;;;;36.80;6.28;;;10.20;99.90;;;;;;5144212;27;20098;-76
2022/02/20 12:48:50;;;;;;;30.02;6.25;;;10.20;99.90;;;;;;5151723;27;20055;-75